createdAt,value
2017-07-01T00:01:01.157Z,26.40
2017-07-01T00:03:27.202Z,30.00
2017-07-01T00:05:53.240Z,27.43
2017-07-01T00:08:20.033Z,26.00
2017-07-01T00:10:46.069Z,28.30
2017-07-01T00:13:12.158Z,24.97
2017-07-01T00:15:38.204Z,29.27
2017-07-01T00:18:04.261Z,22.23
2017-07-01T00:20:30.324Z,27.20
2017-07-01T00:22:56.353Z,26.70
2017-07-01T00:25:22.413Z,26.70
2017-07-01T00:27:48.444Z,24.80
2017-07-01T00:30:14.484Z,23.30
2017-07-01T00:32:40.512Z,17.40
2017-07-01T00:35:06.561Z,20.20
2017-07-01T00:37:33.368Z,23.87
2017-07-01T00:39:59.421Z,22.47
2017-07-01T00:42:25.469Z,28.20
2017-07-01T00:44:51.504Z,23.10
2017-07-01T00:47:17.535Z,21.87
2017-07-01T00:49:43.600Z,32.30
2017-07-01T00:52:09.669Z,27.30
2017-07-01T00:54:35.744Z,33.10
2017-07-01T00:57:01.793Z,33.73
2017-07-01T00:59:27.846Z,34.00
2017-07-01T01:01:53.889Z,28.67
2017-07-01T01:04:19.925Z,16.63
2017-07-01T01:06:45.965Z,41.27
2017-07-01T01:09:12.036Z,35.20
2017-07-01T01:11:38.121Z,33.50
2017-07-01T01:14:04.169Z,35.27
2017-07-01T01:16:30.206Z,35.27
2017-07-01T01:18:56.266Z,33.63
2017-07-01T01:21:22.292Z,30.83
2017-07-01T01:23:48.374Z,41.73
2017-07-01T01:26:14.397Z,35.27
2017-07-01T01:28:40.484Z,39.93
2017-07-01T01:31:07.275Z,40.93
2017-07-01T01:33:33.335Z,33.57
2017-07-01T01:35:59.387Z,39.97
2017-07-01T01:38:25.453Z,35.57
2017-07-01T01:40:51.496Z,38.70
2017-07-01T01:43:17.593Z,44.77
2017-07-01T01:45:43.630Z,35.07
2017-07-01T01:48:09.707Z,37.20
2017-07-01T01:50:35.773Z,47.97
2017-07-01T01:53:01.838Z,42.10
2017-07-01T01:55:27.877Z,41.87
2017-07-01T01:57:53.915Z,43.13
2017-07-01T02:00:19.968Z,57.23
2017-07-01T02:02:46.020Z,52.37
2017-07-01T02:05:12.832Z,53.30
2017-07-01T02:07:38.881Z,51.07
2017-07-01T02:10:04.940Z,42.33
2017-07-01T02:12:30.964Z,29.50
2017-07-01T02:14:56.992Z,35.50
2017-07-01T02:17:26.945Z,49.93
2017-07-01T02:19:52.985Z,32.73
2017-07-01T02:22:26.709Z,32.40
2017-07-01T02:24:54.763Z,33.70
2017-07-01T02:27:20.804Z,26.47
2017-07-01T02:29:46.846Z,31.27
2017-07-01T02:32:13.613Z,35.30
2017-07-01T02:35:06.828Z,30.93
2017-07-01T02:37:33.589Z,29.10
2017-07-01T02:39:59.630Z,26.67
2017-07-01T02:42:25.665Z,25.60
2017-07-01T02:44:52.445Z,35.27
2017-07-01T02:47:30.745Z,36.63
2017-07-01T02:49:57.856Z,43.83
2017-07-01T02:52:36.285Z,35.30
2017-07-01T02:55:13.389Z,36.37
2017-07-01T02:57:39.409Z,40.87
2017-07-01T03:00:05.454Z,35.07
2017-07-01T03:02:34.329Z,33.73
2017-07-01T03:05:00.368Z,35.67
2017-07-01T03:07:26.397Z,38.20
2017-07-01T03:09:52.436Z,38.43
2017-07-01T03:12:18.458Z,34.97
2017-07-01T03:14:44.489Z,31.07
2017-07-01T03:17:10.516Z,32.37
2017-07-01T03:19:36.609Z,23.93
2017-07-01T03:22:02.661Z,24.20
2017-07-01T03:24:28.688Z,28.27
2017-07-01T03:26:54.795Z,30.37
2017-07-01T03:29:23.872Z,34.93
2017-07-01T03:31:49.905Z,33.77
2017-07-01T03:34:15.935Z,37.43
2017-07-01T03:36:41.990Z,31.00
2017-07-01T03:39:20.457Z,29.97
2017-07-01T03:41:59.712Z,31.93
2017-07-01T03:44:36.000Z,28.30
2017-07-01T03:47:02.065Z,34.07
2017-07-01T03:49:29.005Z,16.30
2017-07-01T03:51:55.053Z,19.33
2017-07-01T03:54:21.077Z,20.80
2017-07-01T03:56:47.154Z,23.97
2017-07-01T03:59:13.196Z,19.77
2017-07-01T04:01:39.285Z,20.73
2017-07-01T04:04:05.364Z,26.73
2017-07-01T04:06:31.389Z,19.33
2017-07-01T04:08:57.441Z,23.10
2017-07-01T04:11:24.237Z,23.23
2017-07-01T04:13:50.317Z,23.13
2017-07-01T04:16:16.381Z,17.93
2017-07-01T04:18:42.410Z,19.83
2017-07-01T04:21:08.514Z,20.73
2017-07-01T04:23:34.572Z,15.60
2017-07-01T04:26:00.625Z,22.70
2017-07-01T04:28:27.402Z,18.30
2017-07-01T04:30:53.464Z,20.30
2017-07-01T04:33:20.229Z,16.17
2017-07-01T04:35:46.261Z,20.10
2017-07-01T04:38:16.186Z,18.20
2017-07-01T04:40:42.225Z,16.03
2017-07-01T04:43:15.230Z,19.10
2017-07-01T04:45:41.300Z,12.30
2017-07-01T04:48:11.180Z,14.60
2017-07-01T04:50:48.325Z,22.27
2017-07-01T04:53:14.373Z,16.83
2017-07-01T04:55:40.410Z,16.73
2017-07-01T04:58:06.449Z,16.50
2017-07-01T05:00:34.349Z,17.00
2017-07-01T05:03:00.381Z,21.50
2017-07-01T05:05:38.665Z,20.73
2017-07-01T05:08:09.599Z,15.17
2017-07-01T05:10:41.516Z,18.30
2017-07-01T05:13:08.302Z,15.70
2017-07-01T05:15:39.300Z,15.97
2017-07-01T05:18:05.356Z,15.63
2017-07-01T05:20:34.325Z,12.90
2017-07-01T05:23:06.289Z,16.33
2017-07-01T05:25:43.212Z,12.97
2017-07-01T05:28:09.241Z,14.13
2017-07-01T05:30:36.158Z,12.43
2017-07-01T05:33:02.210Z,14.07
2017-07-01T05:35:35.925Z,14.10
2017-07-01T05:38:01.972Z,14.77
2017-07-01T05:40:28.010Z,16.43
2017-07-01T05:42:56.897Z,14.47
2017-07-01T05:45:24.901Z,12.33
2017-07-01T05:47:50.929Z,11.50
2017-07-01T05:50:16.949Z,15.77
2017-07-01T05:52:43.010Z,16.23
2017-07-01T05:55:09.020Z,13.30
2017-07-01T05:57:35.024Z,13.80
2017-07-01T06:00:01.087Z,16.73
2017-07-01T06:02:27.947Z,13.50
2017-07-01T06:04:53.985Z,15.67
2017-07-01T06:07:20.049Z,16.03
2017-07-01T06:10:18.977Z,14.77
2017-07-01T06:12:45.770Z,12.77
2017-07-01T06:15:18.133Z,16.63
2017-07-01T06:17:44.177Z,14.03
2017-07-01T06:20:16.376Z,13.23
2017-07-01T06:22:49.641Z,16.33
2017-07-01T06:25:16.409Z,18.10
2017-07-01T06:27:47.221Z,15.33
2017-07-01T06:30:15.065Z,17.43
2017-07-01T06:32:53.566Z,14.00
2017-07-01T06:35:30.677Z,16.40
2017-07-01T06:38:14.492Z,14.57
2017-07-01T06:40:53.469Z,14.20
2017-07-01T06:43:19.500Z,18.33
2017-07-01T06:45:45.562Z,17.67
2017-07-01T06:48:19.656Z,20.07
2017-07-01T06:50:45.693Z,17.77
2017-07-01T06:53:11.725Z,21.83
2017-07-01T06:55:37.763Z,14.37
2017-07-01T06:58:03.791Z,16.33
2017-07-01T07:00:29.813Z,14.90
2017-07-01T07:02:55.868Z,15.60
2017-07-01T07:05:21.913Z,14.73
2017-07-01T07:07:47.969Z,13.77
2017-07-01T07:10:13.994Z,12.87
2017-07-01T07:12:40.028Z,16.47
2017-07-01T07:15:06.809Z,17.33
2017-07-01T07:17:32.885Z,13.17
2017-07-01T07:19:58.927Z,14.37
2017-07-01T07:22:24.993Z,14.70
2017-07-01T07:24:51.029Z,14.00
2017-07-01T07:27:17.049Z,14.00
2017-07-01T07:29:43.125Z,16.03
2017-07-01T07:32:09.860Z,19.37
2017-07-01T07:34:35.892Z,19.37
2017-07-01T07:37:01.929Z,16.40
2017-07-01T07:39:27.921Z,14.57
2017-07-01T07:41:53.941Z,14.30
2017-07-01T07:44:19.977Z,12.43
2017-07-01T07:46:46.776Z,15.73
2017-07-01T07:49:12.830Z,17.93
2017-07-01T07:51:38.861Z,12.83
2017-07-01T07:54:04.944Z,13.80
2017-07-01T07:56:30.983Z,13.67
2017-07-01T07:58:57.034Z,15.20
2017-07-01T08:01:23.814Z,15.60
2017-07-01T08:03:49.844Z,15.47
2017-07-01T08:06:15.901Z,13.50
2017-07-01T08:08:41.933Z,14.73
2017-07-01T08:11:07.994Z,18.80
2017-07-01T08:13:34.041Z,13.33
2017-07-01T08:16:00.093Z,14.70
2017-07-01T08:18:26.129Z,13.00
2017-07-01T08:20:52.170Z,17.33
2017-07-01T08:23:18.195Z,14.00
2017-07-01T08:25:51.217Z,14.03
2017-07-01T08:28:17.988Z,15.00
2017-07-01T08:30:44.029Z,16.43
2017-07-01T08:33:10.109Z,17.53
2017-07-01T08:35:36.232Z,15.30
2017-07-01T08:38:02.266Z,14.90
2017-07-01T08:40:28.290Z,15.87
2017-07-01T08:42:55.072Z,17.17
2017-07-01T08:45:21.096Z,14.70
2017-07-01T08:47:47.146Z,20.40
2017-07-01T08:50:13.212Z,15.47
2017-07-01T08:52:39.251Z,14.97
2017-07-01T08:55:05.898Z,13.60
2017-07-01T08:57:32.276Z,14.77
2017-07-01T08:59:58.305Z,12.93
2017-07-01T09:02:24.354Z,12.33
2017-07-01T09:04:50.389Z,13.53
2017-07-01T09:07:16.466Z,12.30
2017-07-01T09:09:42.794Z,15.63
2017-07-01T09:12:09.134Z,12.93
2017-07-01T09:14:35.186Z,12.30
2017-07-01T09:17:01.213Z,12.77
2017-07-01T09:19:27.244Z,10.47
2017-07-01T09:21:53.266Z,11.73
2017-07-01T09:24:19.301Z,12.20
2017-07-01T09:29:19.970Z,10.77
2017-07-01T09:31:46.000Z,11.80
2017-07-01T09:34:12.049Z,11.30
2017-07-01T09:36:38.829Z,9.83
2017-07-01T09:39:04.860Z,8.70
2017-07-01T09:41:31.649Z,8.40
2017-07-01T09:43:57.677Z,10.73
2017-07-01T09:46:23.816Z,9.27
2017-07-01T09:48:50.628Z,9.10
2017-07-01T09:51:16.855Z,7.10
2017-07-01T09:53:42.978Z,5.27
2017-07-01T09:56:09.029Z,3.60
2017-07-01T09:58:35.044Z,2.90
2017-07-01T10:01:01.086Z,3.50
2017-07-01T10:03:27.114Z,2.93
2017-07-01T10:05:53.157Z,2.40
2017-07-01T10:08:19.192Z,2.10
2017-07-01T10:10:45.238Z,1.97
2017-07-01T10:13:12.018Z,1.83
2017-07-01T10:15:38.105Z,2.43
2017-07-01T10:18:04.144Z,2.83
2017-07-01T10:20:30.201Z,2.77
2017-07-01T10:22:56.232Z,1.90
2017-07-01T10:25:22.252Z,2.33
2017-07-01T10:27:48.332Z,2.60
2017-07-01T10:30:14.408Z,2.30
2017-07-01T10:32:41.237Z,1.93
2017-07-01T10:35:07.272Z,1.43
2017-07-01T10:37:33.392Z,1.43
2017-07-01T10:39:59.481Z,1.67
2017-07-01T10:42:25.528Z,1.50
2017-07-01T10:44:51.581Z,3.47
2017-07-01T10:47:17.609Z,3.03
2017-07-01T10:49:44.384Z,2.33
2017-07-01T10:52:10.417Z,2.30
2017-07-01T10:54:36.449Z,2.40
2017-07-01T10:57:02.466Z,3.40
2017-07-01T10:59:29.264Z,2.40
2017-07-01T11:01:55.301Z,2.13
2017-07-01T11:04:22.057Z,3.50
2017-07-01T11:06:48.122Z,2.23
2017-07-01T11:09:14.904Z,2.27
2017-07-01T11:11:40.981Z,2.57
2017-07-01T11:14:07.004Z,5.10
2017-07-01T11:16:33.057Z,3.10
2017-07-01T11:18:59.097Z,3.37
2017-07-01T11:21:25.893Z,3.00
2017-07-01T11:23:51.960Z,3.03
2017-07-01T11:26:17.997Z,4.53
2017-07-01T11:28:44.031Z,4.27
2017-07-01T11:31:10.833Z,4.87
2017-07-01T11:33:36.921Z,5.30
2017-07-01T11:36:02.971Z,5.80
2017-07-01T11:38:29.021Z,5.33
2017-07-01T11:40:55.079Z,4.13
2017-07-01T11:43:21.129Z,5.53
2017-07-01T11:45:47.149Z,5.40
2017-07-01T11:48:13.193Z,5.13
2017-07-01T11:50:40.427Z,5.00
2017-07-01T11:53:08.369Z,4.40
2017-07-01T11:55:34.444Z,6.03
2017-07-01T11:58:00.437Z,5.57
2017-07-01T12:00:26.505Z,5.90
2017-07-01T12:02:52.570Z,6.60
2017-07-01T12:05:18.616Z,6.90
2017-07-01T12:07:44.624Z,9.23
2017-07-01T12:10:10.649Z,13.90
2017-07-01T12:12:36.673Z,8.40
2017-07-01T12:15:02.731Z,10.03
2017-07-01T12:17:28.754Z,9.23
2017-07-01T12:19:54.805Z,13.30
2017-07-01T12:22:21.589Z,9.53
2017-07-01T12:24:47.629Z,12.77
2017-07-01T12:27:13.653Z,11.43
2017-07-01T12:29:39.668Z,10.93
2017-07-01T12:32:06.465Z,10.93
2017-07-01T12:34:32.488Z,9.10
2017-07-01T12:36:58.525Z,11.90
2017-07-01T12:39:25.287Z,11.90
2017-07-01T12:41:51.321Z,11.60
2017-07-01T12:44:17.344Z,26.43
2017-07-01T12:46:43.392Z,9.50
2017-07-01T12:49:09.452Z,13.63
2017-07-01T12:51:35.506Z,14.10
2017-07-01T12:54:01.535Z,15.00
2017-07-01T12:56:27.562Z,9.30
2017-07-01T12:58:53.620Z,9.07
2017-07-01T13:01:19.668Z,14.60
2017-07-01T13:03:45.735Z,9.83
2017-07-01T13:06:11.785Z,11.13
2017-07-01T13:08:37.876Z,9.43
2017-07-01T13:11:03.942Z,13.70
2017-07-01T13:13:29.997Z,15.10
2017-07-01T13:15:56.057Z,16.10
2017-07-01T13:18:22.085Z,13.93
2017-07-01T13:20:48.861Z,10.20
2017-07-01T13:23:14.893Z,12.37
2017-07-01T13:25:40.940Z,9.83
2017-07-01T13:28:06.985Z,11.03
2017-07-01T13:30:33.052Z,12.87
2017-07-01T13:32:59.121Z,10.63
2017-07-01T13:35:25.157Z,13.47
2017-07-01T13:37:51.937Z,19.60
2017-07-01T13:40:17.956Z,13.30
2017-07-01T13:42:43.993Z,10.40
2017-07-01T13:45:10.036Z,12.30
2017-07-01T13:47:36.078Z,16.70
2017-07-01T13:50:02.157Z,17.13
2017-07-01T13:52:28.189Z,15.53
2017-07-01T13:54:54.208Z,13.90
2017-07-01T13:57:20.229Z,14.17
2017-07-01T13:59:46.256Z,13.90
2017-07-01T14:02:13.041Z,15.90
2017-07-01T14:04:39.141Z,13.50
2017-07-01T14:07:05.173Z,12.80
2017-07-01T14:09:31.206Z,16.67
2017-07-01T14:11:57.218Z,17.10
2017-07-01T14:14:23.245Z,13.07
2017-07-01T14:16:49.264Z,16.13
2017-07-01T14:19:15.309Z,14.50
2017-07-01T14:21:41.326Z,15.23
2017-07-01T14:24:07.345Z,12.60
2017-07-01T14:26:33.382Z,15.40
2017-07-01T14:29:00.167Z,19.40
2017-07-01T14:31:26.204Z,17.23
2017-07-01T14:33:52.217Z,14.93
2017-07-01T14:36:18.253Z,15.33
2017-07-01T14:38:44.265Z,15.60
2017-07-01T14:41:10.309Z,14.50
2017-07-01T14:43:36.329Z,14.33
2017-07-01T14:46:02.362Z,17.20
2017-07-01T14:48:29.124Z,16.07
2017-07-01T14:50:55.172Z,15.63
2017-07-01T14:53:21.230Z,15.10
2017-07-01T14:55:47.274Z,13.33
2017-07-01T14:58:13.315Z,16.27
2017-07-01T15:00:39.377Z,19.10
2017-07-01T15:03:05.440Z,14.80
2017-07-01T15:05:32.210Z,16.23
2017-07-01T15:07:58.244Z,15.10
2017-07-01T15:10:24.258Z,26.70
2017-07-01T15:12:50.288Z,19.03
2017-07-01T15:15:17.051Z,16.10
2017-07-01T15:17:43.082Z,14.83
2017-07-01T15:20:09.113Z,19.67
2017-07-01T15:22:35.137Z,19.87
2017-07-01T15:25:01.199Z,17.60
2017-07-01T15:27:27.248Z,19.70
2017-07-01T15:29:53.288Z,18.30
2017-07-01T15:32:19.337Z,17.50
2017-07-01T15:34:45.389Z,14.90
2017-07-01T15:37:11.400Z,17.67
2017-07-01T15:39:38.194Z,16.07
2017-07-01T15:42:04.244Z,15.30
2017-07-01T15:44:30.276Z,22.30
2017-07-01T15:46:56.330Z,14.33
2017-07-01T15:49:22.357Z,14.90
2017-07-01T15:51:49.129Z,16.43
2017-07-01T15:54:15.156Z,14.60
2017-07-01T15:56:41.240Z,14.23
2017-07-01T15:59:09.217Z,16.73
2017-07-01T16:01:47.635Z,21.27
2017-07-01T16:04:14.436Z,13.30
2017-07-01T16:06:40.473Z,17.73
2017-07-01T16:09:06.526Z,23.63
2017-07-01T16:11:32.667Z,19.77
2017-07-01T16:13:58.725Z,22.83
2017-07-01T16:16:24.842Z,15.13
2017-07-01T16:18:50.896Z,14.67
2017-07-01T16:21:16.921Z,16.10
2017-07-01T16:23:42.957Z,23.50
2017-07-01T16:26:09.024Z,15.83
2017-07-01T16:28:35.073Z,17.63
2017-07-01T16:31:01.848Z,17.83
2017-07-01T16:33:27.873Z,19.57
2017-07-01T16:35:53.899Z,16.90
2017-07-01T16:38:19.949Z,19.07
2017-07-01T16:40:45.977Z,19.23
2017-07-01T16:43:12.012Z,17.03
2017-07-01T16:45:38.054Z,24.60
2017-07-01T16:48:04.842Z,19.97
2017-07-01T16:50:30.889Z,17.67
2017-07-01T16:52:57.653Z,14.00
2017-07-01T16:55:23.699Z,23.80
2017-07-01T16:57:49.721Z,15.03
2017-07-01T17:00:15.753Z,21.40
2017-07-01T17:02:41.784Z,16.60
2017-07-01T17:05:07.855Z,18.47
2017-07-01T17:07:34.668Z,17.33
2017-07-01T17:10:00.721Z,15.00
2017-07-01T17:12:26.748Z,26.03
2017-07-01T17:14:52.798Z,21.83
2017-07-01T17:17:18.825Z,20.50
2017-07-01T17:19:45.596Z,26.93
2017-07-01T17:22:18.545Z,18.20
2017-07-01T17:24:44.581Z,20.50
2017-07-01T17:27:10.645Z,21.57
2017-07-01T17:29:36.676Z,22.33
2017-07-01T17:32:02.741Z,23.20
2017-07-01T17:34:29.536Z,28.50
2017-07-01T17:36:55.628Z,25.30
2017-07-01T17:39:21.688Z,18.40
2017-07-01T17:41:47.761Z,17.10
2017-07-01T17:44:13.780Z,22.33
2017-07-01T17:46:39.806Z,20.00
2017-07-01T17:49:05.874Z,28.10
2017-07-01T17:51:31.916Z,26.73
2017-07-01T17:53:57.986Z,29.90
2017-07-01T17:56:24.016Z,32.13
2017-07-01T17:58:50.049Z,25.37
2017-07-01T18:01:16.863Z,24.57
2017-07-01T18:03:42.893Z,32.20
2017-07-01T18:06:09.657Z,32.03
2017-07-01T18:08:35.730Z,28.50
2017-07-01T18:11:02.517Z,39.20
2017-07-01T18:13:28.549Z,27.00
2017-07-01T18:15:54.588Z,33.67
2017-07-01T18:18:21.382Z,34.17
2017-07-01T18:20:48.217Z,29.30
2017-07-01T18:23:15.017Z,34.13
2017-07-01T18:25:41.052Z,33.93
2017-07-01T18:28:07.077Z,32.30
2017-07-01T18:30:33.857Z,32.13
2017-07-01T18:32:59.930Z,41.20
2017-07-01T18:35:25.997Z,35.23
2017-07-01T18:37:52.048Z,36.30
2017-07-01T18:40:18.083Z,35.13
2017-07-01T18:42:44.112Z,31.10
2017-07-01T18:45:10.148Z,37.03
2017-07-01T18:47:36.941Z,34.53
2017-07-01T18:50:02.984Z,33.80
2017-07-01T18:52:29.768Z,35.83
2017-07-01T18:54:55.788Z,41.80
2017-07-01T18:57:21.817Z,34.93
2017-07-01T18:59:47.864Z,33.07
2017-07-01T19:02:13.909Z,22.70
2017-07-01T19:04:39.933Z,40.27
2017-07-01T19:07:05.957Z,44.33
2017-07-01T19:09:31.973Z,32.37
2017-07-01T19:11:58.776Z,41.60
2017-07-01T19:14:24.825Z,41.30
2017-07-01T19:16:50.869Z,32.77
2017-07-01T19:19:16.888Z,41.03
2017-07-01T19:21:42.924Z,43.90
2017-07-01T19:24:09.700Z,34.83
2017-07-01T19:26:35.733Z,38.03
2017-07-01T19:29:01.764Z,48.93
2017-07-01T19:31:27.837Z,42.53
2017-07-01T19:33:53.870Z,67.57
2017-07-01T19:36:19.914Z,41.07
2017-07-01T19:38:45.945Z,49.63
2017-07-01T19:41:11.991Z,35.40
2017-07-01T19:43:38.045Z,35.93
2017-07-01T19:46:04.076Z,39.37
2017-07-01T19:48:30.121Z,38.77
2017-07-01T19:50:56.157Z,42.53
2017-07-01T19:53:22.212Z,47.80
2017-07-01T19:55:48.249Z,41.60
2017-07-01T19:58:14.283Z,50.03
2017-07-01T20:00:41.101Z,41.00
2017-07-01T20:03:07.135Z,39.93
2017-07-01T20:05:33.173Z,38.63
2017-07-01T20:07:59.235Z,41.27
2017-07-01T20:10:26.025Z,42.43
2017-07-01T20:12:52.073Z,49.30
2017-07-01T20:15:18.128Z,68.43
2017-07-01T20:17:44.189Z,58.60
2017-07-01T20:20:10.977Z,49.23
2017-07-01T20:22:37.021Z,61.50
2017-07-01T20:25:03.041Z,50.47
2017-07-01T20:27:29.109Z,55.20
2017-07-01T20:29:55.141Z,57.07
2017-07-01T20:32:21.169Z,57.20
2017-07-01T20:34:47.222Z,60.97
2017-07-01T20:37:13.257Z,45.27
2017-07-01T20:39:39.280Z,65.10
2017-07-01T20:42:06.089Z,56.43
2017-07-01T20:44:32.148Z,43.87
2017-07-01T20:46:58.205Z,62.87
2017-07-01T20:49:24.246Z,52.37
2017-07-01T20:51:51.036Z,67.00
2017-07-01T20:54:17.069Z,57.93
2017-07-01T20:56:43.832Z,62.60
2017-07-01T20:59:09.877Z,61.93
2017-07-01T21:01:35.933Z,63.87
2017-07-01T21:04:01.995Z,65.13
2017-07-01T21:06:28.042Z,43.97
2017-07-01T21:08:54.829Z,54.30
2017-07-01T21:11:20.889Z,59.40
2017-07-01T21:13:46.929Z,47.97
2017-07-01T21:16:12.981Z,37.80
2017-07-01T21:18:39.765Z,41.43
2017-07-01T21:21:05.825Z,44.47
2017-07-01T21:23:31.851Z,40.67
2017-07-01T21:25:57.909Z,60.07
2017-07-01T21:28:23.954Z,47.83
2017-07-01T21:30:50.741Z,49.90
2017-07-01T21:33:16.769Z,51.83
2017-07-01T21:35:42.816Z,51.03
2017-07-01T21:38:08.848Z,51.80
2017-07-01T21:40:34.937Z,44.70
2017-07-01T21:43:01.815Z,46.53
2017-07-01T21:45:28.628Z,36.93
2017-07-01T21:47:54.680Z,71.90
2017-07-01T21:50:21.437Z,33.07
2017-07-01T21:52:47.475Z,48.07
2017-07-01T21:55:13.520Z,42.97
2017-07-01T21:57:40.293Z,49.80
2017-07-01T22:00:06.369Z,43.83
2017-07-01T22:02:32.457Z,55.07
2017-07-01T22:04:58.488Z,58.43
2017-07-01T22:07:24.517Z,39.90
2017-07-01T22:09:50.550Z,45.50
2017-07-01T22:12:16.586Z,36.00
2017-07-01T22:14:43.397Z,56.20
2017-07-01T22:17:09.423Z,51.43
2017-07-01T22:19:35.450Z,50.73
2017-07-01T22:22:01.472Z,42.90
2017-07-01T22:24:27.507Z,46.13
2017-07-01T22:27:00.477Z,44.70
2017-07-01T22:29:26.538Z,47.23
2017-07-01T22:31:53.312Z,54.00
2017-07-01T22:34:19.381Z,48.27
2017-07-01T22:36:45.412Z,38.30
2017-07-01T22:39:11.441Z,45.50
2017-07-01T22:41:37.491Z,37.00
2017-07-01T22:44:03.496Z,46.83
2017-07-01T22:46:29.529Z,52.83
2017-07-01T22:48:55.553Z,42.17
2017-07-01T22:51:21.608Z,49.43
2017-07-01T22:53:47.643Z,54.97
2017-07-01T22:56:13.704Z,57.20
2017-07-01T22:58:39.728Z,27.43
2017-07-01T23:01:05.800Z,27.13
2017-07-01T23:03:31.848Z,32.83
2017-07-01T23:05:57.909Z,46.00
2017-07-01T23:08:23.962Z,27.97
2017-07-01T23:10:49.984Z,35.10
2017-07-01T23:13:16.037Z,42.97
2017-07-01T23:15:42.080Z,41.87
2017-07-01T23:18:08.130Z,37.60
2017-07-01T23:20:34.904Z,32.30
2017-07-01T23:23:00.941Z,37.13
2017-07-01T23:25:26.972Z,47.03
2017-07-01T23:27:53.773Z,28.30
2017-07-01T23:30:19.836Z,34.40
2017-07-01T23:32:45.888Z,33.70
2017-07-01T23:35:11.916Z,36.00
2017-07-01T23:37:37.933Z,32.10
2017-07-01T23:40:03.990Z,28.83
2017-07-01T23:42:30.019Z,26.50
2017-07-01T23:44:56.072Z,29.10
2017-07-01T23:47:22.119Z,32.57
2017-07-01T23:49:48.181Z,30.40
2017-07-01T23:52:14.225Z,32.53
2017-07-01T23:54:40.261Z,30.23
2017-07-01T23:57:06.315Z,24.40
2017-07-01T23:59:32.405Z,22.83
